createdAt,value
2023-04-30T00:00:52.559Z,28.84
2023-04-30T00:01:52.719Z,28.79
2023-04-30T00:02:52.742Z,28.81
2023-04-30T00:03:52.733Z,28.88
2023-04-30T00:04:52.701Z,28.80
2023-04-30T00:05:52.789Z,28.83
2023-04-30T00:06:52.801Z,28.80
2023-04-30T00:07:52.875Z,28.85
2023-04-30T00:08:52.892Z,28.83
2023-04-30T00:09:53.279Z,28.81
2023-04-30T00:10:53.004Z,28.85
2023-04-30T00:11:53.045Z,28.84
2023-04-30T00:12:53.066Z,28.87
2023-04-30T00:13:53.177Z,28.81
2023-04-30T00:14:53.154Z,28.84
2023-04-30T00:15:53.265Z,28.87
2023-04-30T00:16:53.300Z,28.83
2023-04-30T00:17:53.421Z,28.83
2023-04-30T00:18:53.363Z,28.90
2023-04-30T00:19:53.521Z,28.88
2023-04-30T00:20:53.456Z,28.82
2023-04-30T00:21:53.512Z,28.86
2023-04-30T00:22:53.563Z,28.91
2023-04-30T00:23:53.588Z,28.89
2023-04-30T00:24:53.657Z,28.94
2023-04-30T00:25:53.730Z,28.91
2023-04-30T00:26:53.755Z,28.87
2023-04-30T00:27:53.857Z,28.95
2023-04-30T00:28:53.838Z,28.88
2023-04-30T00:29:54.125Z,28.91
2023-04-30T00:30:53.940Z,28.91
2023-04-30T00:31:53.978Z,28.92
2023-04-30T00:32:53.985Z,28.95
2023-04-30T00:33:53.935Z,28.91
2023-04-30T00:34:53.938Z,28.92
2023-04-30T00:35:53.908Z,28.92
2023-04-30T00:36:53.880Z,28.95
2023-04-30T00:37:53.905Z,28.88
2023-04-30T00:38:53.884Z,28.94
2023-04-30T00:39:54.063Z,28.87
2023-04-30T00:40:53.906Z,28.88
2023-04-30T00:41:53.913Z,28.90
2023-04-30T00:42:53.986Z,28.88
2023-04-30T00:43:54.021Z,28.87
2023-04-30T00:44:54.057Z,28.85
2023-04-30T00:45:54.145Z,28.77
2023-04-30T00:46:54.164Z,28.79
2023-04-30T00:47:54.282Z,28.84
2023-04-30T00:48:54.300Z,28.83
2023-04-30T00:49:54.506Z,28.83
2023-04-30T00:50:54.378Z,28.80
2023-04-30T00:51:54.409Z,28.84
2023-04-30T00:52:54.478Z,28.83
2023-04-30T00:53:54.520Z,28.86
2023-04-30T00:54:54.585Z,28.85
2023-04-30T00:55:54.627Z,28.80
2023-04-30T00:56:54.720Z,28.79
2023-04-30T00:57:54.727Z,28.85
2023-04-30T00:58:54.794Z,28.83
2023-04-30T00:59:55.105Z,28.82
2023-04-30T01:00:54.933Z,28.78
2023-04-30T01:01:54.975Z,28.78
2023-04-30T01:02:55.113Z,28.79
2023-04-30T01:03:55.045Z,28.80
2023-04-30T01:04:55.107Z,28.79
2023-04-30T01:05:55.185Z,28.72
2023-04-30T01:06:55.211Z,28.79
2023-04-30T01:07:55.255Z,28.75
2023-04-30T01:08:55.286Z,28.79
2023-04-30T01:09:55.585Z,28.82
2023-04-30T01:10:55.402Z,28.78
2023-04-30T01:11:55.433Z,28.75
2023-04-30T01:12:55.507Z,28.80
2023-04-30T01:13:55.537Z,28.79
2023-04-30T01:14:55.600Z,28.75
2023-04-30T01:15:55.676Z,28.74
2023-04-30T01:16:55.685Z,28.79
2023-04-30T01:17:55.847Z,28.78
2023-04-30T01:18:56.025Z,28.83
2023-04-30T01:19:56.009Z,28.83
2023-04-30T01:20:55.890Z,28.80
2023-04-30T01:21:55.926Z,28.79
2023-04-30T01:22:55.996Z,28.78
2023-04-30T01:23:56.033Z,28.78
2023-04-30T01:24:56.072Z,28.83
2023-04-30T01:25:56.120Z,28.82
2023-04-30T01:26:56.150Z,28.79
2023-04-30T01:27:56.207Z,28.79
2023-04-30T01:28:56.273Z,28.83
2023-04-30T01:29:56.552Z,28.82
2023-04-30T01:30:56.352Z,28.82
2023-04-30T01:31:56.269Z,28.76
2023-04-30T01:32:56.262Z,28.78
2023-04-30T01:33:56.252Z,28.82
2023-04-30T01:34:56.268Z,28.78
2023-04-30T01:35:56.196Z,28.76
2023-04-30T01:36:56.190Z,28.80
2023-04-30T01:37:56.156Z,28.78
2023-04-30T01:38:56.162Z,28.75
2023-04-30T01:39:56.579Z,28.78
2023-04-30T01:40:56.134Z,28.82
2023-04-30T01:41:56.109Z,28.80
2023-04-30T01:42:56.101Z,28.76
2023-04-30T01:43:56.105Z,28.78
2023-04-30T01:44:56.150Z,28.79
2023-04-30T01:45:56.259Z,28.83
2023-04-30T01:46:56.274Z,28.87
2023-04-30T01:47:56.343Z,28.92
2023-04-30T01:48:56.351Z,28.92
2023-04-30T01:49:56.740Z,28.93
2023-04-30T01:50:56.450Z,28.91
2023-04-30T01:51:56.511Z,28.94
2023-04-30T01:52:56.559Z,28.95
2023-04-30T01:53:56.593Z,28.98
2023-04-30T01:54:56.678Z,28.99
2023-04-30T01:55:56.705Z,28.98
2023-04-30T01:56:56.809Z,29.01
2023-04-30T01:57:56.820Z,28.85
2023-04-30T01:58:56.877Z,28.87
2023-04-30T01:59:56.980Z,28.91
2023-04-30T02:00:57.005Z,28.94
2023-04-30T02:01:57.148Z,28.90
2023-04-30T02:02:57.185Z,28.98
2023-04-30T02:03:57.260Z,28.97
2023-04-30T02:04:57.198Z,28.95
2023-04-30T02:05:57.259Z,28.98
2023-04-30T02:06:57.344Z,28.91
2023-04-30T02:07:57.351Z,28.91
2023-04-30T02:08:57.432Z,28.95
2023-04-30T02:09:57.542Z,28.95
2023-04-30T02:10:57.586Z,29.02
2023-04-30T02:11:57.605Z,28.98
2023-04-30T02:12:57.668Z,28.96
2023-04-30T02:13:57.703Z,28.98
2023-04-30T02:14:57.790Z,28.96
2023-04-30T02:15:57.856Z,28.98
2023-04-30T02:16:57.888Z,29.04
2023-04-30T02:17:57.935Z,29.01
2023-04-30T02:18:57.985Z,29.02
2023-04-30T02:19:58.036Z,28.99
2023-04-30T02:20:58.073Z,29.02
2023-04-30T02:21:58.197Z,29.00
2023-04-30T02:22:58.195Z,29.03
2023-04-30T02:23:58.278Z,29.03
2023-04-30T02:24:58.330Z,29.04
2023-04-30T02:25:58.374Z,29.02
2023-04-30T02:26:58.458Z,29.04
2023-04-30T02:27:58.471Z,29.05
2023-04-30T02:28:58.557Z,29.05
2023-04-30T02:29:58.589Z,29.07
2023-04-30T02:30:58.659Z,29.00
2023-04-30T02:31:58.783Z,29.01
2023-04-30T02:32:58.777Z,29.05
2023-04-30T02:33:58.843Z,29.06
2023-04-30T02:34:58.894Z,29.05
2023-04-30T02:35:59.186Z,29.06
2023-04-30T02:36:59.001Z,28.99
2023-04-30T02:37:59.124Z,28.94
2023-04-30T02:38:59.106Z,29.00
2023-04-30T02:39:59.180Z,29.05
2023-04-30T02:40:59.229Z,29.01
2023-04-30T02:41:59.324Z,28.99
2023-04-30T02:42:59.350Z,29.06
2023-04-30T02:43:59.383Z,29.10
2023-04-30T02:44:59.473Z,29.06
2023-04-30T02:45:59.569Z,29.06
2023-04-30T02:46:59.595Z,29.11
2023-04-30T02:47:59.660Z,29.14
2023-04-30T02:48:59.704Z,29.08
2023-04-30T02:49:59.732Z,29.10
2023-04-30T02:50:59.780Z,29.11
2023-04-30T02:51:59.870Z,29.15
2023-04-30T02:52:59.899Z,29.11
2023-04-30T02:53:59.983Z,29.11
2023-04-30T02:55:00.032Z,29.11
2023-04-30T02:56:00.146Z,29.14
2023-04-30T02:57:00.169Z,29.11
2023-04-30T02:58:00.227Z,29.14
2023-04-30T02:59:00.278Z,29.07
2023-04-30T03:00:00.338Z,29.11
2023-04-30T03:01:00.408Z,29.14
2023-04-30T03:02:00.466Z,29.15
2023-04-30T03:03:00.622Z,29.18
2023-04-30T03:04:00.487Z,29.12
2023-04-30T03:05:00.525Z,29.10
2023-04-30T03:06:00.506Z,29.11
2023-04-30T03:07:00.523Z,29.11
2023-04-30T03:08:00.467Z,29.09
2023-04-30T03:09:00.485Z,29.08
2023-04-30T03:10:00.474Z,29.08
2023-04-30T03:11:00.447Z,29.11
2023-04-30T03:12:00.460Z,29.07
2023-04-30T03:13:00.437Z,29.03
2023-04-30T03:14:00.470Z,29.11
2023-04-30T03:15:00.538Z,29.05
2023-04-30T03:16:00.645Z,29.04
2023-04-30T03:17:00.685Z,29.06
2023-04-30T03:18:00.751Z,29.07
2023-04-30T03:19:00.806Z,29.01
2023-04-30T03:20:00.860Z,29.08
2023-04-30T03:21:00.984Z,29.05
2023-04-30T03:22:00.997Z,29.09
2023-04-30T03:23:01.049Z,29.09
2023-04-30T03:24:01.133Z,29.06
2023-04-30T03:25:01.185Z,29.07
2023-04-30T03:26:01.226Z,29.04
2023-04-30T03:27:01.295Z,29.03
2023-04-30T03:28:01.360Z,29.09
2023-04-30T03:29:01.397Z,29.08
2023-04-30T03:30:01.460Z,29.05
2023-04-30T03:31:01.552Z,29.08
2023-04-30T03:32:01.789Z,29.05
2023-04-30T03:33:01.723Z,29.07
2023-04-30T03:34:01.743Z,29.03
2023-04-30T03:35:01.813Z,29.07
2023-04-30T03:36:01.864Z,29.04
2023-04-30T03:37:01.922Z,29.09
2023-04-30T03:38:01.989Z,29.07
2023-04-30T03:39:02.044Z,29.05
2023-04-30T03:40:02.025Z,29.04
2023-04-30T03:41:02.028Z,28.88
2023-04-30T03:42:02.037Z,28.88
2023-04-30T03:43:02.010Z,28.98
2023-04-30T03:44:02.024Z,28.98
2023-04-30T03:45:02.012Z,28.97
2023-04-30T03:46:02.053Z,28.98
2023-04-30T03:47:01.985Z,28.97
2023-04-30T03:48:02.077Z,28.96
2023-04-30T03:49:02.024Z,28.98
2023-04-30T03:50:02.152Z,28.94
2023-04-30T03:51:02.194Z,28.94
2023-04-30T03:52:02.328Z,29.02
2023-04-30T03:53:02.373Z,28.93
2023-04-30T03:54:02.554Z,28.93
2023-04-30T03:55:02.491Z,28.97
2023-04-30T03:56:02.555Z,28.97
2023-04-30T03:57:02.621Z,28.98
2023-04-30T03:58:02.732Z,29.01
2023-04-30T03:59:02.722Z,28.99
2023-04-30T04:00:02.778Z,29.01
2023-04-30T04:01:02.829Z,28.95
2023-04-30T04:02:02.992Z,28.98
2023-04-30T04:03:02.990Z,28.99
2023-04-30T04:04:02.983Z,28.98
2023-04-30T04:05:03.037Z,28.93
2023-04-30T04:06:03.000Z,28.97
2023-04-30T04:07:02.960Z,28.91
2023-04-30T04:08:02.968Z,28.97
2023-04-30T04:09:02.962Z,28.93
2023-04-30T04:10:02.973Z,28.99
2023-04-30T04:11:02.966Z,28.90
2023-04-30T04:12:02.980Z,28.90
2023-04-30T04:13:03.060Z,28.95
2023-04-30T04:14:03.119Z,28.97
2023-04-30T04:15:03.201Z,28.95
2023-04-30T04:16:03.263Z,28.91
2023-04-30T04:17:03.289Z,28.92
2023-04-30T04:18:03.525Z,28.96
2023-04-30T04:19:03.435Z,28.98
2023-04-30T04:20:03.521Z,28.95
2023-04-30T04:21:03.506Z,29.01
2023-04-30T04:22:03.511Z,28.95
2023-04-30T04:23:03.521Z,28.95
2023-04-30T04:24:03.511Z,28.98
2023-04-30T04:25:03.550Z,28.97
2023-04-30T04:26:03.514Z,28.94
2023-04-30T04:27:03.532Z,28.98
2023-04-30T04:28:03.517Z,28.95
2023-04-30T04:29:03.518Z,28.95
2023-04-30T04:30:03.577Z,28.96
2023-04-30T04:31:03.627Z,28.98
2023-04-30T04:32:03.752Z,28.98
2023-04-30T04:33:03.793Z,28.95
2023-04-30T04:34:03.818Z,28.94
2023-04-30T04:35:03.916Z,28.97
2023-04-30T04:36:03.972Z,28.95
2023-04-30T04:37:04.040Z,28.95
2023-04-30T04:38:04.071Z,28.93
2023-04-30T04:39:04.153Z,28.97
2023-04-30T04:40:04.170Z,28.93
2023-04-30T04:41:04.214Z,28.90
2023-04-30T04:42:04.259Z,28.96
2023-04-30T04:43:04.279Z,28.88
2023-04-30T04:44:04.330Z,28.90
2023-04-30T04:45:04.369Z,28.90
2023-04-30T04:46:04.453Z,28.93
2023-04-30T04:47:04.392Z,28.97
2023-04-30T04:48:04.430Z,28.91
2023-04-30T04:49:04.428Z,28.88
2023-04-30T04:50:04.459Z,28.92
2023-04-30T04:51:04.486Z,28.91
2023-04-30T04:52:04.474Z,28.93
2023-04-30T04:53:04.492Z,28.88
2023-04-30T04:54:04.471Z,28.93
2023-04-30T04:55:04.561Z,28.94
2023-04-30T04:56:04.497Z,28.91
2023-04-30T04:57:04.542Z,28.88
2023-04-30T04:58:04.551Z,28.87
2023-04-30T04:59:04.630Z,28.84
2023-04-30T05:00:04.656Z,28.85
2023-04-30T05:01:04.692Z,28.84
2023-04-30T05:02:04.857Z,28.85
2023-04-30T05:03:04.822Z,28.88
2023-04-30T05:04:04.910Z,28.88
2023-04-30T05:05:04.765Z,28.83
2023-04-30T05:06:04.787Z,28.84
2023-04-30T05:07:04.782Z,28.84
2023-04-30T05:08:04.739Z,28.73
2023-04-30T05:09:04.735Z,28.74
2023-04-30T05:10:04.729Z,28.80
2023-04-30T05:11:04.711Z,28.77
2023-04-30T05:12:04.724Z,28.88
2023-04-30T05:13:04.712Z,28.90
2023-04-30T05:14:04.684Z,28.92
2023-04-30T05:15:04.692Z,28.90
2023-04-30T05:16:04.696Z,28.98
2023-04-30T05:17:04.687Z,29.11
2023-04-30T05:18:04.659Z,29.13
2023-04-30T05:19:04.660Z,29.15
2023-04-30T05:20:04.663Z,29.22
2023-04-30T05:21:04.654Z,29.26
2023-04-30T05:22:04.658Z,29.32
2023-04-30T05:23:04.649Z,29.33
2023-04-30T05:24:04.650Z,29.33
2023-04-30T05:25:04.661Z,29.36
2023-04-30T05:26:04.665Z,29.32
2023-04-30T05:27:04.636Z,29.28
2023-04-30T05:28:04.672Z,29.30
2023-04-30T05:29:04.648Z,29.29
2023-04-30T05:30:04.637Z,29.23
2023-04-30T05:31:04.635Z,29.21
2023-04-30T05:32:04.717Z,29.17
2023-04-30T05:33:04.759Z,29.20
2023-04-30T05:34:04.628Z,29.15
2023-04-30T05:35:04.634Z,29.17
2023-04-30T05:36:04.616Z,29.11
2023-04-30T05:37:04.632Z,29.12
2023-04-30T05:38:04.723Z,29.12
2023-04-30T05:39:04.643Z,29.14
2023-04-30T05:40:04.607Z,29.09
2023-04-30T05:41:04.613Z,29.03
2023-04-30T05:42:04.589Z,29.05
2023-04-30T05:43:04.593Z,29.10
2023-04-30T05:44:04.580Z,29.00
2023-04-30T05:45:04.587Z,29.03
2023-04-30T05:46:04.654Z,29.03
2023-04-30T05:47:04.654Z,29.02
2023-04-30T05:48:04.697Z,28.99
2023-04-30T05:49:04.704Z,28.98
2023-04-30T05:50:04.758Z,28.98
2023-04-30T05:51:04.797Z,28.93
2023-04-30T05:52:05.120Z,28.95
2023-04-30T05:53:04.887Z,28.99
2023-04-30T05:54:04.951Z,29.04
2023-04-30T05:55:04.971Z,29.17
2023-04-30T05:56:05.023Z,29.21
2023-04-30T05:57:05.064Z,29.17
2023-04-30T05:58:05.024Z,29.10
2023-04-30T05:59:05.030Z,29.22
2023-04-30T06:00:05.028Z,29.22
2023-04-30T06:01:05.026Z,29.23
2023-04-30T06:02:05.063Z,29.13
2023-04-30T06:03:05.051Z,29.22
2023-04-30T06:04:05.040Z,29.23
2023-04-30T06:05:05.038Z,29.30
2023-04-30T06:06:05.083Z,29.23
2023-04-30T06:07:05.017Z,29.23
2023-04-30T06:08:05.006Z,29.24
2023-04-30T06:09:05.096Z,29.30
2023-04-30T06:10:05.096Z,29.30
2023-04-30T06:11:05.029Z,29.28
2023-04-30T06:12:05.039Z,29.26
2023-04-30T06:13:05.062Z,29.33
2023-04-30T06:14:05.029Z,29.38
2023-04-30T06:15:05.056Z,29.34
2023-04-30T06:16:05.074Z,29.35
2023-04-30T06:17:05.053Z,29.31
2023-04-30T06:18:05.094Z,29.37
2023-04-30T06:19:05.117Z,29.42
2023-04-30T06:20:05.058Z,29.35
2023-04-30T06:21:05.054Z,29.32
2023-04-30T06:22:05.071Z,29.31
2023-04-30T06:23:05.062Z,29.44
2023-04-30T06:24:05.055Z,29.36
2023-04-30T06:25:05.063Z,29.39
2023-04-30T06:26:05.054Z,29.35
2023-04-30T06:27:05.054Z,29.32
2023-04-30T06:28:05.069Z,29.40
2023-04-30T06:29:05.051Z,29.35
2023-04-30T06:30:05.039Z,29.37
2023-04-30T06:31:05.096Z,29.35
2023-04-30T06:32:07.724Z,29.40
2023-04-30T06:33:05.074Z,29.40
2023-04-30T06:34:05.051Z,29.46
2023-04-30T06:35:05.078Z,29.43
2023-04-30T06:36:05.050Z,29.36
2023-04-30T06:37:05.084Z,29.43
2023-04-30T06:38:05.050Z,29.49
2023-04-30T06:39:05.078Z,29.50
2023-04-30T06:40:05.119Z,29.47
2023-04-30T06:41:05.067Z,29.42
2023-04-30T06:42:05.080Z,29.50
2023-04-30T06:43:05.070Z,29.43
2023-04-30T06:44:05.083Z,29.44
2023-04-30T06:45:05.087Z,29.47
2023-04-30T06:46:05.172Z,29.51
2023-04-30T06:47:05.115Z,29.44
2023-04-30T06:48:05.147Z,29.46
2023-04-30T06:49:05.106Z,29.37
2023-04-30T06:50:05.099Z,29.41
2023-04-30T06:51:05.116Z,29.39
2023-04-30T06:52:05.121Z,29.44
2023-04-30T06:53:05.145Z,29.47
2023-04-30T06:54:05.111Z,29.37
2023-04-30T06:55:05.203Z,29.43
2023-04-30T06:56:05.125Z,29.42
2023-04-30T06:57:05.154Z,29.37
2023-04-30T06:58:05.161Z,29.43
2023-04-30T06:59:05.144Z,29.34
2023-04-30T07:00:05.165Z,29.34
2023-04-30T07:01:05.181Z,29.36
2023-04-30T07:02:05.150Z,29.40
2023-04-30T07:03:05.247Z,29.37
2023-04-30T07:04:05.186Z,29.37
2023-04-30T07:05:05.224Z,29.33
2023-04-30T07:06:05.218Z,29.34
2023-04-30T07:07:05.201Z,29.33
2023-04-30T07:08:05.207Z,29.30
2023-04-30T07:09:05.211Z,29.33
2023-04-30T07:10:05.200Z,29.26
2023-04-30T07:11:05.228Z,29.29
2023-04-30T07:12:05.247Z,29.34
2023-04-30T07:13:05.253Z,29.30
2023-04-30T07:14:05.353Z,29.37
2023-04-30T07:15:05.240Z,29.37
2023-04-30T07:16:05.314Z,29.34
2023-04-30T07:17:05.278Z,29.43
2023-04-30T07:18:05.330Z,29.39
2023-04-30T07:19:05.257Z,29.37
2023-04-30T07:20:05.263Z,29.28
2023-04-30T07:21:05.308Z,29.32
2023-04-30T07:22:05.629Z,29.34
2023-04-30T07:23:05.262Z,29.39
2023-04-30T07:24:05.299Z,29.32
2023-04-30T07:25:05.285Z,29.34
2023-04-30T07:26:05.291Z,29.28
2023-04-30T07:27:05.314Z,29.44
2023-04-30T07:28:05.330Z,29.34
2023-04-30T07:29:05.274Z,29.37
2023-04-30T07:30:05.280Z,29.37
2023-04-30T07:31:05.356Z,29.41
2023-04-30T07:32:05.298Z,29.36
2023-04-30T07:33:05.365Z,29.37
2023-04-30T07:34:05.341Z,29.30
2023-04-30T07:35:05.384Z,29.36
2023-04-30T07:36:05.351Z,29.33
2023-04-30T07:37:05.354Z,29.28
2023-04-30T07:38:05.351Z,29.30
2023-04-30T07:39:05.385Z,29.38
2023-04-30T07:40:05.390Z,29.37
2023-04-30T07:41:05.398Z,29.31
2023-04-30T07:42:05.428Z,29.28
2023-04-30T07:43:05.405Z,29.31
2023-04-30T07:44:05.469Z,29.34
2023-04-30T07:45:05.435Z,29.27
2023-04-30T07:46:05.451Z,29.30
2023-04-30T07:47:05.478Z,29.26
2023-04-30T07:48:05.500Z,29.20
2023-04-30T07:49:05.462Z,29.32
2023-04-30T07:50:05.490Z,29.16
2023-04-30T07:51:05.479Z,29.27
2023-04-30T07:52:05.486Z,29.28
2023-04-30T07:53:05.543Z,29.31
2023-04-30T07:54:05.511Z,29.31
2023-04-30T07:55:05.520Z,29.30
2023-04-30T07:56:05.517Z,29.36
2023-04-30T07:57:05.525Z,29.28
2023-04-30T07:58:05.566Z,29.30
2023-04-30T07:59:05.528Z,29.30
2023-04-30T08:00:05.553Z,29.27
2023-04-30T08:01:05.564Z,29.32
2023-04-30T08:02:05.612Z,29.30
2023-04-30T08:03:05.634Z,29.32
2023-04-30T08:04:05.721Z,29.29
2023-04-30T08:05:05.605Z,29.31
2023-04-30T08:06:05.620Z,29.26
2023-04-30T08:07:05.597Z,29.24
2023-04-30T08:08:05.608Z,29.23
2023-04-30T08:09:05.608Z,29.22
2023-04-30T08:10:05.657Z,29.21
2023-04-30T08:11:05.617Z,29.19
2023-04-30T08:12:05.630Z,29.23
2023-04-30T08:13:05.654Z,29.16
2023-04-30T08:14:05.635Z,29.09
2023-04-30T08:15:05.668Z,29.12
2023-04-30T08:16:05.668Z,29.09
2023-04-30T08:17:05.725Z,29.11
2023-04-30T08:18:05.823Z,29.16
2023-04-30T08:19:05.666Z,29.11
2023-04-30T08:20:05.662Z,29.10
2023-04-30T08:21:05.667Z,29.11
2023-04-30T08:22:05.675Z,29.11
2023-04-30T08:23:05.713Z,29.16
2023-04-30T08:24:05.777Z,29.05
2023-04-30T08:25:05.754Z,29.04
2023-04-30T08:26:05.740Z,29.01
2023-04-30T08:27:05.744Z,29.04
2023-04-30T08:28:05.747Z,29.11
2023-04-30T08:29:05.779Z,29.03
2023-04-30T08:30:05.816Z,29.11
2023-04-30T08:31:05.852Z,29.12
2023-04-30T08:32:06.034Z,29.07
2023-04-30T08:33:06.003Z,29.05
2023-04-30T08:34:06.060Z,29.02
2023-04-30T08:35:06.122Z,29.02
2023-04-30T08:36:06.088Z,29.01
2023-04-30T08:37:06.175Z,29.03
2023-04-30T08:38:06.212Z,28.99
2023-04-30T08:39:06.245Z,29.04
2023-04-30T08:40:06.315Z,29.06
2023-04-30T08:41:06.372Z,29.06
2023-04-30T08:42:06.415Z,29.04
2023-04-30T08:43:06.487Z,29.07
2023-04-30T08:44:08.421Z,29.04
2023-04-30T08:45:06.590Z,29.08
2023-04-30T08:46:06.673Z,29.10
2023-04-30T08:47:06.726Z,29.06
2023-04-30T08:48:06.799Z,29.15
2023-04-30T08:49:06.864Z,29.12
2023-04-30T08:50:06.866Z,29.14
2023-04-30T08:51:06.907Z,29.15
2023-04-30T08:52:06.950Z,29.11
2023-04-30T08:53:07.011Z,29.14
2023-04-30T08:54:07.063Z,29.10
2023-04-30T08:55:07.117Z,29.16
2023-04-30T08:56:07.148Z,29.14
2023-04-30T08:57:07.223Z,29.07
2023-04-30T08:58:07.683Z,29.07
2023-04-30T08:59:07.293Z,29.16
2023-04-30T09:00:07.364Z,29.22
2023-04-30T09:01:07.410Z,29.25
2023-04-30T09:02:07.537Z,29.27
2023-04-30T09:03:07.544Z,29.14
2023-04-30T09:04:07.652Z,29.13
2023-04-30T09:05:07.541Z,29.04
2023-04-30T09:06:07.620Z,28.97
2023-04-30T09:07:09.617Z,28.97
2023-04-30T09:08:07.681Z,28.93
2023-04-30T09:09:07.686Z,28.90
2023-04-30T09:10:07.718Z,28.88
2023-04-30T09:11:07.758Z,28.89
2023-04-30T09:12:07.772Z,28.84
2023-04-30T09:13:07.805Z,28.87
2023-04-30T09:14:07.840Z,28.77
2023-04-30T09:15:07.864Z,28.83
2023-04-30T09:16:07.950Z,28.79
2023-04-30T09:17:07.938Z,28.78
2023-04-30T09:18:08.066Z,28.78
2023-04-30T09:19:07.987Z,28.79
2023-04-30T09:20:08.009Z,28.81
2023-04-30T09:21:08.035Z,28.77
2023-04-30T09:22:07.993Z,28.77
2023-04-30T09:23:07.982Z,28.82
2023-04-30T09:24:07.990Z,28.74
2023-04-30T09:25:07.931Z,28.75
2023-04-30T09:26:07.894Z,28.75
2023-04-30T09:27:07.923Z,28.72
2023-04-30T09:28:07.886Z,28.74
2023-04-30T09:29:08.229Z,28.69
2023-04-30T09:30:07.833Z,28.64
2023-04-30T09:31:07.854Z,28.58
2023-04-30T09:32:07.818Z,28.61
2023-04-30T09:33:10.745Z,28.59
2023-04-30T09:34:07.812Z,28.61
2023-04-30T09:35:07.759Z,28.55
2023-04-30T09:36:07.732Z,28.53
2023-04-30T09:37:07.735Z,28.55
2023-04-30T09:38:07.725Z,28.54
2023-04-30T09:39:10.345Z,28.61
2023-04-30T09:40:07.736Z,28.53
2023-04-30T09:41:07.670Z,28.62
2023-04-30T09:42:07.651Z,28.56
2023-04-30T09:43:07.648Z,28.56
2023-04-30T09:44:07.618Z,28.55
2023-04-30T09:45:07.683Z,28.50
2023-04-30T09:46:07.591Z,28.48
2023-04-30T09:47:07.707Z,28.51
2023-04-30T09:48:16.544Z,28.52
2023-04-30T09:49:08.602Z,28.47
2023-04-30T09:50:07.636Z,28.50
2023-04-30T09:51:07.512Z,28.49
2023-04-30T09:52:07.519Z,28.50
2023-04-30T09:53:07.518Z,28.41
2023-04-30T09:54:07.486Z,28.47
2023-04-30T09:55:07.491Z,28.40
2023-04-30T09:56:07.456Z,28.42
2023-04-30T09:57:07.457Z,28.43
2023-04-30T09:58:07.480Z,28.40
2023-04-30T09:59:07.430Z,28.42
2023-04-30T10:00:07.426Z,28.43
2023-04-30T10:01:07.468Z,28.38
2023-04-30T10:02:07.398Z,28.38
2023-04-30T10:03:07.428Z,28.42
2023-04-30T10:04:07.381Z,28.41
2023-04-30T10:05:07.363Z,28.42
2023-04-30T10:06:07.454Z,28.37
2023-04-30T10:07:07.351Z,28.41
2023-04-30T10:08:07.304Z,28.40
2023-04-30T10:09:07.284Z,28.38
2023-04-30T10:10:07.272Z,28.38
2023-04-30T10:11:07.256Z,28.42
2023-04-30T10:12:07.211Z,28.45
2023-04-30T10:13:07.748Z,28.42
2023-04-30T10:14:07.179Z,28.44
2023-04-30T10:15:07.183Z,28.40
2023-04-30T10:16:07.197Z,28.37
2023-04-30T10:17:07.149Z,28.41
2023-04-30T10:18:07.239Z,28.38
2023-04-30T10:19:07.115Z,28.38
2023-04-30T10:20:07.085Z,28.34
2023-04-30T10:21:07.089Z,28.45
2023-04-30T10:22:07.052Z,28.37
2023-04-30T10:23:07.039Z,28.31
2023-04-30T10:24:06.988Z,28.36
2023-04-30T10:25:06.994Z,28.34
2023-04-30T10:26:06.970Z,28.31
2023-04-30T10:27:07.713Z,28.38
2023-04-30T10:28:07.213Z,28.38
2023-04-30T10:29:06.889Z,28.32
2023-04-30T10:30:06.898Z,28.31
2023-04-30T10:31:06.900Z,28.37
2023-04-30T10:32:06.941Z,28.35
2023-04-30T10:33:06.942Z,28.34
2023-04-30T10:34:06.936Z,28.29
2023-04-30T10:35:06.971Z,28.37
2023-04-30T10:36:06.944Z,28.35
2023-04-30T10:37:06.945Z,28.35
2023-04-30T10:38:06.975Z,28.32
2023-04-30T10:39:06.978Z,28.38
2023-04-30T10:40:06.983Z,28.42
2023-04-30T10:41:07.071Z,28.39
2023-04-30T10:42:07.014Z,28.38
2023-04-30T10:43:07.020Z,28.39
2023-04-30T10:44:07.052Z,28.45
2023-04-30T10:45:07.057Z,28.38
2023-04-30T10:46:07.086Z,28.35
2023-04-30T10:47:07.107Z,28.46
2023-04-30T10:48:07.360Z,28.39
2023-04-30T10:49:07.101Z,28.42
2023-04-30T10:50:07.136Z,28.43
2023-04-30T10:51:07.139Z,28.45
2023-04-30T10:52:07.172Z,28.43
2023-04-30T10:53:07.180Z,28.40
2023-04-30T10:54:07.210Z,28.42
2023-04-30T10:55:07.272Z,28.43
2023-04-30T10:56:07.254Z,28.45
2023-04-30T10:57:07.249Z,28.41
2023-04-30T10:58:07.276Z,28.36
2023-04-30T10:59:07.287Z,28.39
2023-04-30T11:00:07.289Z,28.42
2023-04-30T11:01:07.331Z,28.42
2023-04-30T11:02:07.324Z,28.42
2023-04-30T11:03:07.465Z,28.39
2023-04-30T11:04:07.366Z,28.39
2023-04-30T11:05:07.522Z,28.40
2023-04-30T11:06:07.436Z,28.43
2023-04-30T11:07:07.409Z,28.40
2023-04-30T11:08:07.433Z,28.42
2023-04-30T11:09:07.490Z,28.39
2023-04-30T11:10:07.468Z,28.36
2023-04-30T11:11:07.472Z,28.42
2023-04-30T11:12:07.510Z,28.35
2023-04-30T11:13:07.528Z,28.37
2023-04-30T11:14:07.523Z,28.39
2023-04-30T11:15:07.551Z,28.35
2023-04-30T11:16:07.566Z,28.37
2023-04-30T11:17:07.589Z,28.29
2023-04-30T11:18:07.738Z,28.33
2023-04-30T11:19:08.580Z,28.25
2023-04-30T11:20:07.657Z,28.33
2023-04-30T11:21:07.665Z,28.25
2023-04-30T11:22:07.706Z,28.27
2023-04-30T11:23:07.713Z,28.29
2023-04-30T11:24:07.746Z,28.30
2023-04-30T11:25:07.739Z,28.31
2023-04-30T11:26:07.775Z,28.34
2023-04-30T11:27:07.813Z,28.32
2023-04-30T11:28:07.784Z,28.32
2023-04-30T11:29:07.829Z,28.33
2023-04-30T11:30:07.782Z,28.31
2023-04-30T11:31:07.930Z,28.31
2023-04-30T11:32:07.810Z,28.35
2023-04-30T11:33:07.858Z,28.31
2023-04-30T11:34:07.902Z,28.34
2023-04-30T11:35:07.927Z,28.32
2023-04-30T11:36:07.930Z,28.34
2023-04-30T11:37:07.900Z,28.28
2023-04-30T11:38:08.009Z,28.35
2023-04-30T11:39:08.061Z,28.38
2023-04-30T11:40:07.948Z,28.38
2023-04-30T11:41:07.966Z,28.38
2023-04-30T11:42:07.971Z,28.42
2023-04-30T11:43:08.009Z,28.34
2023-04-30T11:44:07.936Z,28.34
2023-04-30T11:45:07.939Z,28.34
2023-04-30T11:46:07.963Z,28.32
2023-04-30T11:47:08.112Z,28.32
2023-04-30T11:48:07.929Z,28.33
2023-04-30T11:49:07.941Z,28.30
2023-04-30T11:50:07.873Z,28.27
2023-04-30T11:51:07.852Z,28.17
2023-04-30T11:52:07.858Z,28.19
2023-04-30T11:53:07.856Z,28.23
2023-04-30T11:54:07.808Z,28.20
2023-04-30T11:55:07.773Z,28.23
2023-04-30T11:56:07.776Z,28.12
2023-04-30T11:57:07.762Z,28.18
2023-04-30T11:58:07.749Z,28.20
2023-04-30T11:59:07.723Z,28.22
2023-04-30T12:00:07.702Z,28.20
2023-04-30T12:01:07.814Z,28.25
2023-04-30T12:02:07.756Z,28.20
2023-04-30T12:03:07.783Z,28.21
2023-04-30T12:04:07.738Z,28.17
2023-04-30T12:05:07.637Z,28.22
2023-04-30T12:06:07.689Z,28.20
2023-04-30T12:07:07.578Z,28.22
2023-04-30T12:08:07.581Z,28.18
2023-04-30T12:09:07.540Z,28.16
2023-04-30T12:10:07.545Z,28.20
2023-04-30T12:11:07.481Z,28.19
2023-04-30T12:12:07.475Z,28.17
2023-04-30T12:13:07.462Z,28.13
2023-04-30T12:14:07.535Z,28.15
2023-04-30T12:15:07.410Z,28.15
2023-04-30T12:16:07.425Z,28.14
2023-04-30T12:17:07.366Z,28.16
2023-04-30T12:18:07.386Z,28.14
2023-04-30T12:19:07.359Z,28.14
2023-04-30T12:20:07.290Z,28.15
2023-04-30T12:21:07.296Z,28.15
2023-04-30T12:22:07.243Z,28.15
2023-04-30T12:23:07.264Z,28.14
2023-04-30T12:24:07.236Z,28.12
2023-04-30T12:25:07.210Z,28.09
2023-04-30T12:26:07.221Z,28.08
2023-04-30T12:27:07.233Z,28.11
2023-04-30T12:28:07.265Z,28.11
2023-04-30T12:29:07.257Z,28.12
2023-04-30T12:30:07.251Z,28.12
2023-04-30T12:31:07.252Z,28.06
2023-04-30T12:32:07.286Z,28.07
2023-04-30T12:33:07.288Z,28.07
2023-04-30T12:34:07.255Z,28.10
2023-04-30T12:35:07.262Z,28.03
2023-04-30T12:36:07.267Z,28.06
2023-04-30T12:37:07.280Z,28.13
2023-04-30T12:38:07.260Z,28.07
2023-04-30T12:39:07.229Z,28.06
2023-04-30T12:40:07.255Z,28.07
2023-04-30T12:41:07.182Z,28.06
2023-04-30T12:42:07.162Z,28.06
2023-04-30T12:43:07.185Z,28.04
2023-04-30T12:44:07.119Z,28.07
2023-04-30T12:45:07.104Z,28.05
2023-04-30T12:46:07.126Z,28.03
2023-04-30T12:47:07.070Z,28.01
2023-04-30T12:48:07.113Z,27.98
2023-04-30T12:49:07.029Z,27.96
2023-04-30T12:50:07.016Z,28.02
2023-04-30T12:51:06.983Z,27.99
2023-04-30T12:52:06.964Z,28.00
2023-04-30T12:53:07.032Z,27.94